Time;durP1;ratioP1;P1;durP2;ratioP2;P2;SDS_P1;SDS_P2;PMS_P1;PMS_P2;Temp;Humidity;BMP_temperature;BMP_pressure;BME280_temperature;BME280_humidity;BME280_pressure;Samples;Min_cycle;Max_cycle;Signal;HPM_P1;HPM_P2
2021/04/23 00:01:06;;;;;;;;;;;;;;;;;;4932249;29;19949;-67
2021/04/23 00:03:33;;;;;;;;;;;;;;;;;;4936418;29;19970;-67
2021/04/23 00:05:59;;;;;;;;;;;;;;;;;;4938735;29;19934;-67
2021/04/23 00:08:25;;;;;;;;;;;;;;;;;;4939802;29;19977;-67
2021/04/23 00:10:52;;;;;;;;;;;;;;;;;;4936507;29;19976;-67
2021/04/23 00:13:18;;;;;;;;;;;;;;;;;;4933231;29;19933;-68
2021/04/23 00:15:45;;;;;;;;;;;;;;;;;;4934805;29;19927;-67
2021/04/23 00:18:11;;;;;;;;;;;;;;;;;;4940209;28;19990;-67
2021/04/23 00:20:38;;;;;;;;;;;;;;;;;;4938764;29;19935;-67
2021/04/23 00:23:04;;;;;;;;;;;;;;;;;;4941253;29;20030;-67
2021/04/23 00:25:31;;;;;;;;;;;;;;;;;;4937319;29;20013;-67
2021/04/23 00:27:57;;;;;;;;;;;;;;;;;;4934770;28;19937;-67
2021/04/23 00:30:23;;;;;;;;;;;;;;;;;;4932789;29;19926;-67
2021/04/23 00:32:50;;;;;;;;;;;;;;;;;;4928242;29;19927;-67
2021/04/23 00:35:16;;;;;;;;;;;;;;;;;;4933910;28;19935;-66
2021/04/23 00:37:46;;;;;;;;;;;;;;;;;;4944848;28;19988;-66
2021/04/23 00:40:12;;;;;;;;;;;;;;;;;;4934946;29;20345;-67
2021/04/23 00:42:39;;;;;;;;;;;;;;;;;;4928786;28;19927;-66
2021/04/23 00:45:05;;;;;;;;;;;;;;;;;;4938775;29;19996;-67
2021/04/23 00:47:32;;;;;;;;;;;;;;;;;;4933443;29;20410;-66
2021/04/23 00:49:58;;;;;;;;;;;;;;;;;;4932311;29;20309;-67
2021/04/23 00:52:25;;;;;;;;;;;;;;;;;;4928571;29;19934;-67
2021/04/23 00:54:51;;;;;;;;;;;;;;;;;;4937401;28;19926;-67
2021/04/23 00:57:18;;;;;;;;;;;;;;;;;;4933738;28;20040;-67
2021/04/23 00:59:44;;;;;;;;;;;;;;;;;;4941905;29;19927;-67
2021/04/23 01:02:14;;;;;;;;;;;;;;;;;;4932123;29;19926;-67
2021/04/23 01:04:41;;;;;;;;;;;;;;;;;;4925540;28;19931;-67
2021/04/23 01:07:07;;;;;;;;;;;;;;;;;;4925438;29;20509;-67
2021/04/23 01:09:34;;;;;;;;;;;;;;;;;;4930806;29;19931;-67
2021/04/23 01:12:00;;;;;;;;;;;;;;;;;;4932856;29;19935;-67
2021/04/23 01:14:27;;;;;;;;;;;;;;;;;;4933880;28;20021;-67
2021/04/23 01:16:53;;;;;;;;;;;;;;;;;;4931053;29;20349;-67
2021/04/23 01:19:19;;;;;;;;;;;;;;;;;;4936401;28;20049;-67
2021/04/23 01:21:46;;;;;;;;;;;;;;;;;;4932744;29;19988;-67
2021/04/23 01:24:13;;;;;;;;;;;;;;;;;;4934928;29;20439;-67
2021/04/23 01:26:39;;;;;;;;;;;;;;;;;;4935964;29;19927;-67
2021/04/23 01:29:06;;;;;;;;;;;;;;;;;;4936420;29;20409;-67
2021/04/23 01:31:32;;;;;;;;;;;;;;;;;;4938012;29;19930;-68
2021/04/23 01:33:59;;;;;;;;;;;;;;;;;;4932664;29;19942;-67
2021/04/23 01:36:25;;;;;;;;;;;;;;;;;;4936119;29;19927;-67
2021/04/23 01:38:52;;;;;;;;;;;;;;;;;;4933155;29;20014;-67
2021/04/23 01:41:18;;;;;;;;;;;;;;;;;;4931879;29;19927;-67
2021/04/23 01:43:45;;;;;;;;;;;;;;;;;;4933465;29;20000;-67
2021/04/23 01:46:11;;;;;;;;;;;;;;;;;;4931009;28;20294;-67
2021/04/23 01:48:38;;;;;;;;;;;;;;;;;;4934530;29;19926;-67
2021/04/23 01:51:04;;;;;;;;;;;;;;;;;;4932679;28;19939;-67
2021/04/23 01:53:31;;;;;;;;;;;;;;;;;;4936217;29;19994;-68
2021/04/23 01:55:57;;;;;;;;;;;;;;;;;;4932128;29;19934;-67
2021/04/23 01:58:24;;;;;;;;;;;;;;;;;;4940214;29;19926;-67
2021/04/23 02:00:50;;;;;;;;;;;;;;;;;;4930575;29;20023;-67
2021/04/23 02:03:17;;;;;;;;;;;;;;;;;;4938680;29;19937;-67
2021/04/23 02:05:43;;;;;;;;;;;;;;;;;;4939123;28;20331;-67
2021/04/23 02:08:10;;;;;;;;;;;;;;;;;;4928460;29;19935;-67
2021/04/23 02:10:36;;;;;;;;;;;;;;;;;;4939449;28;20321;-67
2021/04/23 02:13:03;;;;;;;;;;;;;;;;;;4946811;28;19941;-67
2021/04/23 02:15:29;;;;;;;;;;;;;;;;;;4935024;28;19926;-67
2021/04/23 02:17:56;;;;;;;;;;;;;;;;;;4934279;28;19926;-67
2021/04/23 02:20:22;;;;;;;;;;;;;;;;;;4936992;29;21175;-67
2021/04/23 02:22:48;;;;;;;;;;;;;;;;;;4938815;29;20290;-67
2021/04/23 02:25:15;;;;;;;;;;;;;;;;;;4938618;29;19927;-67
2021/04/23 02:27:42;;;;;;;;;;;;;;;;;;4938499;28;19927;-67
2021/04/23 02:30:08;;;;;;;;;;;;;;;;;;4936399;29;19931;-67
2021/04/23 02:32:34;;;;;;;;;;;;;;;;;;4935601;29;19926;-67
2021/04/23 02:35:01;;;;;;;;;;;;;;;;;;4934135;29;19926;-67
2021/04/23 02:37:27;;;;;;;;;;;;;;;;;;4942262;29;20377;-67
2021/04/23 02:39:54;;;;;;;;;;;;;;;;;;4928009;29;19972;-67
2021/04/23 02:42:20;;;;;;;;;;;;;;;;;;4933913;28;20436;-67
2021/04/23 02:44:47;;;;;;;;;;;;;;;;;;4938679;29;19927;-67
2021/04/23 02:47:13;;;;;;;;;;;;;;;;;;4932058;29;19933;-67
2021/04/23 02:49:40;;;;;;;;;;;;;;;;;;4943113;28;20333;-67
2021/04/23 02:52:06;;;;;;;;;;;;;;;;;;4935359;29;19984;-68
2021/04/23 02:54:33;;;;;;;;;;;;;;;;;;4940223;29;19931;-67
2021/04/23 02:56:59;;;;;;;;;;;;;;;;;;4938256;29;19930;-67
2021/04/23 02:59:26;;;;;;;;;;;;;;;;;;4940308;29;20013;-66
2021/04/23 03:01:52;;;;;;;;;;;;;;;;;;4947850;29;19927;-66
2021/04/23 03:04:19;;;;;;;;;;;;;;;;;;4946691;29;19972;-65
2021/04/23 03:06:45;;;;;;;;;;;;;;;;;;4928242;29;20010;-66
2021/04/23 03:09:12;;;;;;;;;;;;;;;;;;4937215;28;19942;-67
2021/04/23 03:11:38;;;;;;;;;;;;;;;;;;4934339;29;20298;-66
2021/04/23 03:14:05;;;;;;;;;;;;;;;;;;4927293;28;20342;-66
2021/04/23 03:16:31;;;;;;;;;;;;;;;;;;4942798;28;20411;-66
2021/04/23 03:18:58;;;;;;;;;;;;;;;;;;4934373;29;19934;-67
2021/04/23 03:21:24;;;;;;;;;;;;;;;;;;4937117;29;19927;-67
2021/04/23 03:23:51;;;;;;;;;;;;;;;;;;4934048;29;20383;-66
2021/04/23 03:26:17;;;;;;;;;;;;;;;;;;4936772;29;19927;-65
2021/04/23 03:28:44;;;;;;;;;;;;;;;;;;4933906;28;19931;-65
2021/04/23 03:31:11;;;;;;;;;;;;;;;;;;4936743;28;20384;-65
2021/04/23 03:33:37;;;;;;;;;;;;;;;;;;4954019;29;19926;-65
2021/04/23 03:36:05;;;;;;;;;;;;;;;;;;4935230;28;19926;-66
2021/04/23 03:38:31;;;;;;;;;;;;;;;;;;4945166;29;20399;-66
2021/04/23 03:40:58;;;;;;;;;;;;;;;;;;4930484;29;19926;-65
2021/04/23 03:43:24;;;;;;;;;;;;;;;;;;4934679;29;19970;-65
2021/04/23 03:45:52;;;;;;;;;;;;;;;;;;4934555;29;20343;-66
2021/04/23 03:48:19;;;;;;;;;;;;;;;;;;4934464;29;19934;-67
2021/04/23 03:50:45;;;;;;;;;;;;;;;;;;4940749;29;19927;-68
2021/04/23 03:53:12;;;;;;;;;;;;;;;;;;4932021;28;19927;-66
2021/04/23 03:55:38;;;;;;;;;;;;;;;;;;4939314;28;19933;-66
2021/04/23 03:58:05;;;;;;;;;;;;;;;;;;4926194;29;19931;-67
2021/04/23 04:00:31;;;;;;;;;;;;;;;;;;4943273;29;19927;-67
2021/04/23 04:02:58;;;;;;;;;;;;;;;;;;4934046;29;19927;-67
2021/04/23 04:05:24;;;;;;;;;;;;;;;;;;4933928;28;19978;-67
2021/04/23 04:07:51;;;;;;;;;;;;;;;;;;4936189;29;19931;-66
2021/04/23 04:10:17;;;;;;;;;;;;;;;;;;4935428;29;19937;-66
2021/04/23 04:12:44;;;;;;;;;;;;;;;;;;4937260;28;19973;-67
2021/04/23 04:15:10;;;;;;;;;;;;;;;;;;4918692;29;20001;-66
2021/04/23 04:17:37;;;;;;;;;;;;;;;;;;4934693;29;19931;-67
2021/04/23 04:20:03;;;;;;;;;;;;;;;;;;5038514;22;19925;-66
2021/04/23 04:22:30;;;;;;;;;;;;;;;;;;5049577;28;19951;-67
2021/04/23 04:24:56;;;;;;;;;;;;;;;;;;5043840;28;19976;-66
2021/04/23 04:27:23;;;;;;;;;;;;;;;;;;5051130;28;20265;-67
2021/04/23 04:29:49;;;;;;;;;;;;;;;;;;5050716;28;19971;-65
2021/04/23 04:32:16;;;;;;;;;;;;;;;;;;5050816;28;20335;-65
2021/04/23 04:34:42;;;;;;;;;;;;;;;;;;5049499;28;19932;-66
2021/04/23 04:37:08;;;;;;;;;;;;;;;;;;5051255;28;19928;-66
2021/04/23 04:39:35;;;;;;;;;;;;;;;;;;5051064;28;19925;-66
2021/04/23 04:42:01;;;;;;;;;;;;;;;;;;5048951;28;19994;-66
2021/04/23 04:44:30;;;;;;;;;;;;;;;;;;5051059;28;19928;-66
2021/04/23 04:46:56;;;;;;;;;;;;;;;;;;5048203;28;19987;-66
2021/04/23 04:49:23;;;;;;;;;;;;;;;;;;5051243;28;20495;-67
2021/04/23 04:51:49;;;;;;;;;;;;;;;;;;5050542;28;19925;-66
2021/04/23 04:54:16;;;;;;;;;;;;;;;;;;5041074;28;19932;-66
2021/04/23 04:56:42;;;;;;;;;;;;;;;;;;5048355;28;19931;-66
2021/04/23 04:59:09;;;;;;;;;;;;;;;;;;5051319;28;19929;-67
2021/04/23 05:01:35;;;;;;;;;;;;;;;;;;5050825;28;20370;-67
2021/04/23 05:04:02;;;;;;;;;;;;;;;;;;5045638;28;19935;-66
2021/04/23 05:06:29;;;;;;;;;;;;;;;;;;5039361;28;20003;-67
2021/04/23 05:08:55;;;;;;;;;;;;;;;;;;5047163;28;19924;-66
2021/04/23 05:11:21;;;;;;;;;;;;;;;;;;5049608;28;19925;-67
2021/04/23 05:13:48;;;;;;;;;;;;;;;;;;5049074;28;19970;-68
2021/04/23 05:16:16;;;;;;;;;;;;;;;;;;5048839;28;19931;-65
2021/04/23 05:18:42;;;;;;;;;;;;;;;;;;5048462;28;20008;-65
2021/04/23 05:21:09;;;;;;;;;;;;;;;;;;5048188;28;19972;-66
2021/04/23 05:23:35;;;;;;;;;;;;;;;;;;5049693;28;19924;-66
2021/04/23 05:26:02;;;;;;;;;;;;;;;;;;5050288;28;19925;-67
2021/04/23 05:28:28;;;;;;;;;;;;;;;;;;5050431;28;19982;-69
2021/04/23 05:30:55;;;;;;;;;;;;;;;;;;5041676;28;20000;-67
2021/04/23 05:33:21;;;;;;;;;;;;;;;;;;5050393;28;20300;-69
2021/04/23 05:35:48;;;;;;;;;;;;;;;;;;5049527;28;19925;-66
2021/04/23 05:38:15;;;;;;;;;;;;;;;;;;5046485;28;19937;-67
2021/04/23 05:40:43;;;;;;;;;;;;;;;;;;5047495;28;20293;-67
2021/04/23 05:43:09;;;;;;;;;;;;;;;;;;5050660;28;19929;-68
2021/04/23 05:45:36;;;;;;;;;;;;;;;;;;5043997;28;19932;-67
2021/04/23 05:48:02;;;;;;;;;;;;;;;;;;5040103;28;19933;-67
2021/04/23 05:50:29;;;;;;;;;;;;;;;;;;5050269;28;20236;-68
2021/04/23 05:52:55;;;;;;;;;;;;;;;;;;5050949;28;20339;-66
2021/04/23 05:55:25;;;;;;;;;;;;;;;;;;5048873;28;19925;-67
2021/04/23 05:57:51;;;;;;;;;;;;;;;;;;5045488;28;19958;-68
2021/04/23 06:00:19;;;;;;;;;;;;;;;;;;5051585;28;19975;-67
2021/04/23 06:02:45;;;;;;;;;;;;;;;;;;5053891;28;20028;-66
2021/04/23 06:05:11;;;;;;;;;;;;;;;;;;5059339;28;20470;-68
2021/04/23 06:07:38;;;;;;;;;;;;;;;;;;5046419;28;19950;-69
2021/04/23 06:10:04;;;;;;;;;;;;;;;;;;5051614;28;20525;-69
2021/04/23 06:12:31;;;;;;;;;;;;;;;;;;5043418;28;19958;-67
2021/04/23 06:14:57;;;;;;;;;;;;;;;;;;5048573;28;19933;-66
2021/04/23 06:17:24;;;;;;;;;;;;;;;;;;5047211;28;20351;-68
2021/04/23 06:19:50;;;;;;;;;;;;;;;;;;5044915;28;19924;-68
2021/04/23 06:22:17;;;;;;;;;;;;;;;;;;5048532;28;19936;-71
2021/04/23 06:24:43;;;;;;;;;;;;;;;;;;5046431;28;19928;-68
2021/04/23 06:27:10;;;;;;;;;;;;;;;;;;5047931;28;19985;-68
2021/04/23 06:29:36;;;;;;;;;;;;;;;;;;5049476;28;19925;-68
2021/04/23 06:32:03;;;;;;;;;;;;;;;;;;5050970;28;20274;-69
2021/04/23 06:34:29;;;;;;;;;;;;;;;;;;5045125;28;20121;-67
2021/04/23 06:36:56;;;;;;;;;;;;;;;;;;5046220;28;19940;-67
2021/04/23 06:39:22;;;;;;;;;;;;;;;;;;5052952;28;19961;-67
2021/04/23 06:41:49;;;;;;;;;;;;;;;;;;5054616;28;19929;-68
2021/04/23 06:44:15;;;;;;;;;;;;;;;;;;5047660;28;19924;-68
2021/04/23 06:46:42;;;;;;;;;;;;;;;;;;5047371;28;19929;-68
2021/04/23 06:49:08;;;;;;;;;;;;;;;;;;5046557;28;19925;-68
2021/04/23 06:51:35;;;;;;;;;;;;;;;;;;5056125;28;19933;-64
2021/04/23 06:54:01;;;;;;;;;;;;;;;;;;5062853;28;19951;-64
2021/04/23 06:56:28;;;;;;;;;;;;;;;;;;5048641;28;19929;-68
2021/04/23 06:58:54;;;;;;;;;;;;;;;;;;5042498;28;19948;-66
2021/04/23 07:01:21;;;;;;;;;;;;;;;;;;5044082;28;20403;-67
2021/04/23 07:03:47;;;;;;;;;;;;;;;;;;5047900;28;19928;-67
2021/04/23 07:06:14;;;;;;;;;;;;;;;;;;5044811;28;19987;-68
2021/04/23 07:08:40;;;;;;;;;;;;;;;;;;5039479;28;19928;-67
2021/04/23 07:11:07;;;;;;;;;;;;;;;;;;5044344;28;19936;-67
2021/04/23 07:13:33;;;;;;;;;;;;;;;;;;5045059;28;19931;-69
2021/04/23 07:16:00;;;;;;;;;;;;;;;;;;5047072;28;19925;-67
2021/04/23 07:18:29;;;;;;;;;;;;;;;;;;5041369;28;20405;-67
2021/04/23 07:20:55;;;;;;;;;;;;;;;;;;5043585;28;19951;-67
2021/04/23 07:23:24;;;;;;;;;;;;;;;;;;5044766;28;19926;-68
2021/04/23 07:25:50;;;;;;;;;;;;;;;;;;5045538;28;19932;-67
2021/04/23 07:28:17;;;;;;;;;;;;;;;;;;5038917;28;19936;-68
2021/04/23 07:30:43;;;;;;;;;;;;;;;;;;5046975;28;20027;-67
2021/04/23 07:33:12;;;;;;;;;;;;;;;;;;5045836;28;19956;-69
2021/04/23 07:35:39;;;;;;;;;;;;;;;;;;5030310;28;19929;-69
2021/04/23 07:38:06;;;;;;;;;;;;;;;;;;5043450;28;19925;-68
2021/04/23 07:40:32;;;;;;;;;;;;;;;;;;5047219;28;20344;-67
2021/04/23 07:43:01;;;;;;;;;;;;;;;;;;5041969;28;19925;-68
2021/04/23 07:45:28;;;;;;;;;;;;;;;;;;5043840;28;20027;-65
2021/04/23 07:47:54;;;;;;;;;;;;;;;;;;5042255;28;19980;-67
2021/04/23 07:50:24;;;;;;;;;;;;;;;;;;5045955;28;19944;-67
2021/04/23 07:52:51;;;;;;;;;;;;;;;;;;5044434;28;20373;-68
2021/04/23 07:55:18;;;;;;;;;;;;;;;;;;5046388;28;19929;-67
2021/04/23 07:57:44;;;;;;;;;;;;;;;;;;5042124;28;20324;-67
2021/04/23 08:00:11;;;;;;;;;;;;;;;;;;5046156;28;19928;-67
2021/04/23 08:02:37;;;;;;;;;;;;;;;;;;5048974;28;19929;-68
2021/04/23 08:05:04;;;;;;;;;;;;;;;;;;5044001;28;20012;-66
2021/04/23 08:07:30;;;;;;;;;;;;;;;;;;5041230;28;19937;-67
2021/04/23 08:09:57;;;;;;;;;;;;;;;;;;5046566;28;20377;-69
2021/04/23 08:12:23;;;;;;;;;;;;;;;;;;5045198;28;19931;-65
2021/04/23 08:14:50;;;;;;;;;;;;;;;;;;5043884;28;20335;-68
2021/04/23 08:17:16;;;;;;;;;;;;;;;;;;5038884;28;19925;-67
2021/04/23 08:19:43;;;;;;;;;;;;;;;;;;5044079;28;20347;-67
2021/04/23 08:22:09;;;;;;;;;;;;;;;;;;5045229;28;19977;-68
2021/04/23 08:24:36;;;;;;;;;;;;;;;;;;5043912;28;20335;-68
2021/04/23 08:27:02;;;;;;;;;;;;;;;;;;5040660;28;20407;-67
2021/04/23 08:29:29;;;;;;;;;;;;;;;;;;5041073;28;20028;-65
2021/04/23 08:31:55;;;;;;;;;;;;;;;;;;5047724;28;19924;-66
2021/04/23 08:34:22;;;;;;;;;;;;;;;;;;5047026;28;19924;-67
2021/04/23 08:36:48;;;;;;;;;;;;;;;;;;5040683;28;19940;-67
2021/04/23 08:39:14;;;;;;;;;;;;;;;;;;5045716;28;19925;-67
2021/04/23 08:41:41;;;;;;;;;;;;;;;;;;5043542;28;20296;-67
2021/04/23 08:44:08;;;;;;;;;;;;;;;;;;5043720;28;19928;-70
2021/04/23 08:46:34;;;;;;;;;;;;;;;;;;5040716;28;19933;-66
2021/04/23 08:49:00;;;;;;;;;;;;;;;;;;5045273;28;19929;-67
2021/04/23 08:51:27;;;;;;;;;;;;;;;;;;5044190;28;19935;-69
2021/04/23 08:53:53;;;;;;;;;;;;;;;;;;5044832;28;19931;-69
2021/04/23 08:56:20;;;;;;;;;;;;;;;;;;5042054;28;19942;-69
2021/04/23 08:58:46;;;;;;;;;;;;;;;;;;5038965;28;19935;-69
2021/04/23 09:01:13;;;;;;;;;;;;;;;;;;5042519;28;19925;-67
2021/04/23 09:03:40;;;;;;;;;;;;;;;;;;5040430;28;19937;-68
2021/04/23 09:06:06;;;;;;;;;;;;;;;;;;5042492;28;20077;-70
2021/04/23 09:08:32;;;;;;;;;;;;;;;;;;5040491;28;19978;-68
2021/04/23 09:10:59;;;;;;;;;;;;;;;;;;5043912;28;20324;-69
2021/04/23 09:13:26;;;;;;;;;;;;;;;;;;5042646;28;19925;-67
2021/04/23 09:15:52;;;;;;;;;;;;;;;;;;5043334;28;19968;-68
2021/04/23 09:18:21;;;;;;;;;;;;;;;;;;5038476;28;20020;-69
2021/04/23 09:20:47;;;;;;;;;;;;;;;;;;5040348;28;20382;-69
2021/04/23 09:23:14;;;;;;;;;;;;;;;;;;5041678;28;19924;-69
2021/04/23 09:25:40;;;;;;;;;;;;;;;;;;5042946;28;19925;-70
2021/04/23 09:28:07;;;;;;;;;;;;;;;;;;5040356;28;20368;-68
2021/04/23 09:30:33;;;;;;;;;;;;;;;;;;5043443;28;20012;-68
2021/04/23 09:33:00;;;;;;;;;;;;;;;;;;5041967;28;20028;-68
2021/04/23 09:35:26;;;;;;;;;;;;;;;;;;5043271;28;19928;-68
2021/04/23 09:37:53;;;;;;;;;;;;;;;;;;5038147;28;20023;-69
2021/04/23 09:40:19;;;;;;;;;;;;;;;;;;5042847;28;20035;-68
2021/04/23 09:42:46;;;;;;;;;;;;;;;;;;5040789;28;20408;-70
2021/04/23 09:45:12;;;;;;;;;;;;;;;;;;5042358;28;19931;-68
2021/04/23 09:47:39;;;;;;;;;;;;;;;;;;5040026;28;20310;-69
2021/04/23 09:50:06;;;;;;;;;;;;;;;;;;5043647;28;19939;-68
2021/04/23 09:52:32;;;;;;;;;;;;;;;;;;5039512;28;20015;-67
2021/04/23 09:54:59;;;;;;;;;;;;;;;;;;5039925;28;20395;-67
2021/04/23 09:57:27;;;;;;;;;;;;;;;;;;5039169;28;19925;-67
2021/04/23 09:59:53;;;;;;;;;;;;;;;;;;5041927;28;19925;-68
2021/04/23 10:02:20;;;;;;;;;;;;;;;;;;5040746;28;20034;-68
2021/04/23 10:04:46;;;;;;;;;;;;;;;;;;5044338;28;20018;-68
2021/04/23 10:07:13;;;;;;;;;;;;;;;;;;5041198;28;20027;-69
2021/04/23 10:09:39;;;;;;;;;;;;;;;;;;5041725;28;19925;-68
2021/04/23 10:12:06;;;;;;;;;;;;;;;;;;5043224;28;20106;-67
2021/04/23 10:14:32;;;;;;;;;;;;;;;;;;5043096;28;19929;-68
2021/04/23 10:16:59;;;;;;;;;;;;;;;;;;5037951;28;19925;-69
2021/04/23 10:19:25;;;;;;;;;;;;;;;;;;5001265;23;19927;-65
2021/04/23 10:21:52;;;;;;;;;;;;;;;;;;4946539;28;20016;-65
2021/04/23 10:24:18;;;;;;;;;;;;;;;;;;4946601;28;19948;-65
2021/04/23 10:26:45;;;;;;;;;;;;;;;;;;4943180;28;20139;-65
2021/04/23 10:29:11;;;;;;;;;;;;;;;;;;4941371;28;20459;-65
2021/04/23 10:31:38;;;;;;;;;;;;;;;;;;4948213;29;20017;-65
2021/04/23 10:34:05;;;;;;;;;;;;;;;;;;4943749;28;19966;-65
2021/04/23 10:36:33;;;;;;;;;;;;;;;;;;4943994;28;20431;-65
2021/04/23 10:39:02;;;;;;;;;;;;;;;;;;4943307;28;20329;-65
2021/04/23 10:41:29;;;;;;;;;;;;;;;;;;4941029;28;19934;-65
2021/04/23 10:43:57;;;;;;;;;;;;;;;;;;4942602;28;19973;-65
2021/04/23 10:46:24;;;;;;;;;;;;;;;;;;4944772;28;20351;-65
2021/04/23 10:48:50;;;;;;;;;;;;;;;;;;4939336;28;19931;-65
2021/04/23 10:51:17;;;;;;;;;;;;;;;;;;4947366;29;19933;-64
2021/04/23 10:53:44;;;;;;;;;;;;;;;;;;4941791;28;19934;-64
2021/04/23 10:56:10;;;;;;;;;;;;;;;;;;4943787;29;20481;-65
2021/04/23 10:58:37;;;;;;;;;;;;;;;;;;4939490;28;19926;-65
2021/04/23 11:01:03;;;;;;;;;;;;;;;;;;4943690;29;19966;-64
2021/04/23 11:03:30;;;;;;;;;;;;;;;;;;4941609;28;19926;-64
2021/04/23 11:05:56;;;;;;;;;;;;;;;;;;4945995;28;20408;-64
2021/04/23 11:08:23;;;;;;;;;;;;;;;;;;4942434;28;20026;-65
2021/04/23 11:10:49;;;;;;;;;;;;;;;;;;4945405;28;20129;-65
2021/04/23 11:13:16;;;;;;;;;;;;;;;;;;4944960;28;19927;-65
2021/04/23 11:15:42;;;;;;;;;;;;;;;;;;4946733;28;19931;-65
2021/04/23 11:18:09;;;;;;;;;;;;;;;;;;4943954;28;19937;-63
2021/04/23 11:20:35;;;;;;;;;;;;;;;;;;4944678;29;20017;-63
2021/04/23 11:23:04;;;;;;;;;;;;;;;;;;4945685;28;20023;-63
2021/04/23 11:25:30;;;;;;;;;;;;;;;;;;4945148;28;20466;-63
2021/04/23 11:27:59;;;;;;;;;;;;;;;;;;4946316;28;20053;-64
2021/04/23 11:30:26;;;;;;;;;;;;;;;;;;4941857;29;19927;-64
2021/04/23 11:32:54;;;;;;;;;;;;;;;;;;4945378;29;20135;-64
2021/04/23 11:35:21;;;;;;;;;;;;;;;;;;4943194;28;19941;-64
2021/04/23 11:37:47;;;;;;;;;;;;;;;;;;4940909;28;19970;-64
2021/04/23 11:40:14;;;;;;;;;;;;;;;;;;4945459;29;19931;-63
2021/04/23 11:42:40;;;;;;;;;;;;;;;;;;4944237;29;19980;-63
2021/04/23 11:45:07;;;;;;;;;;;;;;;;;;4945472;29;19948;-63
2021/04/23 11:47:34;;;;;;;;;;;;;;;;;;4943505;28;19933;-62
2021/04/23 11:50:00;;;;;;;;;;;;;;;;;;4943786;28;19937;-62
2021/04/23 11:52:27;;;;;;;;;;;;;;;;;;4941000;28;20009;-65
2021/04/23 11:54:53;;;;;;;;;;;;;;;;;;4945110;28;19972;-63
2021/04/23 11:57:20;;;;;;;;;;;;;;;;;;4943073;28;19935;-63
2021/04/23 11:59:46;;;;;;;;;;;;;;;;;;4944943;29;20018;-65
2021/04/23 12:02:13;;;;;;;;;;;;;;;;;;4942036;29;19934;-63
2021/04/23 12:04:39;;;;;;;;;;;;;;;;;;4943912;28;20443;-62
2021/04/23 12:07:06;;;;;;;;;;;;;;;;;;4940131;28;20018;-64
2021/04/23 12:09:32;;;;;;;;;;;;;;;;;;4946113;28;19926;-63
2021/04/23 12:11:59;;;;;;;;;;;;;;;;;;4949828;28;19977;-63
2021/04/23 12:14:25;;;;;;;;;;;;;;;;;;4949341;28;19942;-65
2021/04/23 12:16:52;;;;;;;;;;;;;;;;;;4940470;29;20004;-63
2021/04/23 12:19:18;;;;;;;;;;;;;;;;;;4939399;28;20020;-64
2021/04/23 12:21:45;;;;;;;;;;;;;;;;;;4943994;28;19945;-65
2021/04/23 12:24:11;;;;;;;;;;;;;;;;;;4941828;28;19933;-63
2021/04/23 12:26:38;;;;;;;;;;;;;;;;;;4943965;28;19935;-64
2021/04/23 12:29:04;;;;;;;;;;;;;;;;;;4943029;28;19933;-64
2021/04/23 12:31:32;;;;;;;;;;;;;;;;;;4943633;28;20013;-64
2021/04/23 12:33:59;;;;;;;;;;;;;;;;;;4946979;28;19927;-65
2021/04/23 12:36:25;;;;;;;;;;;;;;;;;;4946748;28;20053;-65
2021/04/23 12:38:52;;;;;;;;;;;;;;;;;;4947715;28;20381;-64
2021/04/23 12:41:18;;;;;;;;;;;;;;;;;;4953707;28;19949;-64
2021/04/23 12:43:45;;;;;;;;;;;;;;;;;;4942228;28;19927;-65
2021/04/23 12:46:11;;;;;;;;;;;;;;;;;;4951402;28;19974;-64
2021/04/23 12:48:38;;;;;;;;;;;;;;;;;;4940466;28;20325;-65
2021/04/23 12:51:04;;;;;;;;;;;;;;;;;;4951193;28;20402;-64
2021/04/23 12:53:31;;;;;;;;;;;;;;;;;;4946319;28;19926;-65
2021/04/23 12:55:57;;;;;;;;;;;;;;;;;;4947005;28;20015;-64
2021/04/23 12:58:24;;;;;;;;;;;;;;;;;;4941814;28;19936;-64
2021/04/23 13:00:50;;;;;;;;;;;;;;;;;;4946088;28;20116;-63
2021/04/23 13:03:17;;;;;;;;;;;;;;;;;;4947610;28;19930;-64
2021/04/23 13:05:43;;;;;;;;;;;;;;;;;;4941662;28;19926;-63
2021/04/23 13:08:10;;;;;;;;;;;;;;;;;;4943465;28;20365;-63
2021/04/23 13:10:38;;;;;;;;;;;;;;;;;;4946733;28;20540;-63
2021/04/23 13:13:04;;;;;;;;;;;;;;;;;;4940142;28;20017;-64
2021/04/23 13:15:32;;;;;;;;;;;;;;;;;;4948088;28;20432;-64
2021/04/23 13:18:00;;;;;;;;;;;;;;;;;;4943288;28;20318;-65
2021/04/23 13:20:27;;;;;;;;;;;;;;;;;;4964754;28;19938;-65
2021/04/23 13:22:53;;;;;;;;;;;;;;;;;;4946686;28;19934;-65
2021/04/23 13:25:20;;;;;;;;;;;;;;;;;;4949044;28;19973;-67
2021/04/23 13:27:46;;;;;;;;;;;;;;;;;;4949982;28;19927;-65
2021/04/23 13:30:13;;;;;;;;;;;;;;;;;;4943354;28;19930;-66
2021/04/23 13:32:40;;;;;;;;;;;;;;;;;;4943715;29;20137;-65
2021/04/23 13:35:06;;;;;;;;;;;;;;;;;;4942158;28;19926;-66
2021/04/23 13:37:33;;;;;;;;;;;;;;;;;;4941102;28;20302;-64
2021/04/23 13:39:59;;;;;;;;;;;;;;;;;;4949394;28;19980;-64
2021/04/23 13:42:25;;;;;;;;;;;;;;;;;;4944281;28;19930;-65
2021/04/23 13:44:53;;;;;;;;;;;;;;;;;;4939199;28;19937;-65
2021/04/23 13:47:19;;;;;;;;;;;;;;;;;;4942372;28;20042;-66
2021/04/23 13:49:46;;;;;;;;;;;;;;;;;;4943371;29;19927;-64
2021/04/23 13:52:12;;;;;;;;;;;;;;;;;;4943343;28;19974;-65
2021/04/23 13:54:39;;;;;;;;;;;;;;;;;;4946526;29;19934;-66
2021/04/23 13:57:05;;;;;;;;;;;;;;;;;;4940017;29;19930;-64
2021/04/23 13:59:35;;;;;;;;;;;;;;;;;;4942803;28;20489;-66
2021/04/23 14:02:02;;;;;;;;;;;;;;;;;;4940612;29;19934;-66
2021/04/23 14:04:29;;;;;;;;;;;;;;;;;;4951368;28;19933;-64
2021/04/23 14:06:56;;;;;;;;;;;;;;;;;;4949140;29;19973;-65
2021/04/23 14:09:23;;;;;;;;;;;;;;;;;;4943182;29;19972;-65
2021/04/23 14:11:52;;;;;;;;;;;;;;;;;;4948072;28;19933;-66
2021/04/23 14:14:19;;;;;;;;;;;;;;;;;;4950761;28;19934;-67
2021/04/23 14:16:47;;;;;;;;;;;;;;;;;;4948164;28;20786;-66
2021/04/23 14:19:14;;;;;;;;;;;;;;;;;;4946412;29;19927;-65
2021/04/23 14:21:41;;;;;;;;;;;;;;;;;;4946389;28;19987;-66
2021/04/23 14:24:09;;;;;;;;;;;;;;;;;;4946476;29;20421;-66
2021/04/23 14:26:36;;;;;;;;;;;;;;;;;;4950903;29;19931;-66
2021/04/23 14:29:02;;;;;;;;;;;;;;;;;;4944777;29;20022;-66
2021/04/23 14:31:28;;;;;;;;;;;;;;;;;;4943704;29;20013;-66
2021/04/23 14:33:57;;;;;;;;;;;;;;;;;;4945753;29;19927;-66
2021/04/23 14:36:24;;;;;;;;;;;;;;;;;;4945632;28;19935;-64
2021/04/23 14:38:50;;;;;;;;;;;;;;;;;;4953732;28;20440;-66
2021/04/23 14:41:17;;;;;;;;;;;;;;;;;;4956383;28;20025;-65
2021/04/23 14:43:43;;;;;;;;;;;;;;;;;;4944180;29;20424;-65
2021/04/23 14:46:10;;;;;;;;;;;;;;;;;;4948678;28;20397;-65
2021/04/23 14:48:36;;;;;;;;;;;;;;;;;;4943631;28;19926;-65
2021/04/23 14:51:03;;;;;;;;;;;;;;;;;;4947811;28;19926;-65
2021/04/23 14:53:29;;;;;;;;;;;;;;;;;;4946292;28;19941;-65
2021/04/23 14:55:56;;;;;;;;;;;;;;;;;;4946937;28;20298;-66
2021/04/23 14:58:22;;;;;;;;;;;;;;;;;;4946865;29;19926;-66
2021/04/23 15:00:49;;;;;;;;;;;;;;;;;;4952777;28;20005;-66
2021/04/23 15:03:15;;;;;;;;;;;;;;;;;;4950306;28;20313;-68
2021/04/23 15:05:42;;;;;;;;;;;;;;;;;;4962341;28;19927;-68
2021/04/23 15:08:08;;;;;;;;;;;;;;;;;;4958580;28;19926;-68
2021/04/23 15:10:35;;;;;;;;;;;;;;;;;;4948568;28;19939;-68
2021/04/23 15:13:02;;;;;;;;;;;;;;;;;;4945984;29;20009;-67
2021/04/23 15:15:28;;;;;;;;;;;;;;;;;;4944602;29;19976;-69
2021/04/23 15:17:55;;;;;;;;;;;;;;;;;;4948244;28;19994;-67
2021/04/23 15:20:21;;;;;;;;;;;;;;;;;;4941398;29;20028;-67
2021/04/23 15:22:48;;;;;;;;;;;;;;;;;;4945030;29;19978;-66
2021/04/23 15:25:14;;;;;;;;;;;;;;;;;;4944938;28;20353;-65
2021/04/23 15:27:41;;;;;;;;;;;;;;;;;;4943593;28;20290;-68
2021/04/23 15:30:07;;;;;;;;;;;;;;;;;;4947719;28;19930;-68
2021/04/23 15:32:34;;;;;;;;;;;;;;;;;;4944440;29;19966;-67
2021/04/23 15:35:00;;;;;;;;;;;;;;;;;;4945462;28;19927;-66
2021/04/23 15:37:27;;;;;;;;;;;;;;;;;;4944870;29;19992;-66
2021/04/23 15:39:53;;;;;;;;;;;;;;;;;;4948353;28;20017;-67
2021/04/23 15:42:20;;;;;;;;;;;;;;;;;;4942600;28;20759;-66
2021/04/23 15:44:46;;;;;;;;;;;;;;;;;;4946111;29;19980;-66
2021/04/23 15:47:15;;;;;;;;;;;;;;;;;;4943661;29;19966;-67
2021/04/23 15:49:42;;;;;;;;;;;;;;;;;;4945641;28;20000;-67
2021/04/23 15:52:08;;;;;;;;;;;;;;;;;;4946990;28;20388;-69
2021/04/23 15:54:35;;;;;;;;;;;;;;;;;;4947970;28;19965;-67
2021/04/23 15:57:01;;;;;;;;;;;;;;;;;;4941974;29;19984;-66
2021/04/23 15:59:28;;;;;;;;;;;;;;;;;;4943447;29;19957;-68
2021/04/23 16:01:54;;;;;;;;;;;;;;;;;;4947108;28;20363;-66
2021/04/23 16:04:21;;;;;;;;;;;;;;;;;;4946207;28;19927;-65
2021/04/23 16:06:47;;;;;;;;;;;;;;;;;;4951916;28;19976;-65
2021/04/23 16:09:14;;;;;;;;;;;;;;;;;;4952012;28;19970;-66
2021/04/23 16:11:40;;;;;;;;;;;;;;;;;;4950471;28;19938;-66
2021/04/23 16:14:07;;;;;;;;;;;;;;;;;;4947360;29;19934;-66
2021/04/23 16:16:33;;;;;;;;;;;;;;;;;;4946088;28;20026;-68
2021/04/23 16:19:00;;;;;;;;;;;;;;;;;;4946846;28;19926;-67
2021/04/23 16:21:26;;;;;;;;;;;;;;;;;;4946470;28;20437;-67
2021/04/23 16:23:53;;;;;;;;;;;;;;;;;;4942901;29;19934;-67
2021/04/23 16:26:19;;;;;;;;;;;;;;;;;;4951208;28;20013;-67
2021/04/23 16:28:46;;;;;;;;;;;;;;;;;;4950684;28;20338;-67
2021/04/23 16:31:12;;;;;;;;;;;;;;;;;;4952376;28;19931;-67
2021/04/23 16:33:39;;;;;;;;;;;;;;;;;;4944345;29;19933;-68
2021/04/23 16:36:05;;;;;;;;;;;;;;;;;;4945086;29;20017;-67
2021/04/23 16:38:32;;;;;;;;;;;;;;;;;;4942129;29;19926;-66
2021/04/23 16:40:58;;;;;;;;;;;;;;;;;;4944303;28;19927;-66